Ana Sayfa
METAR-TAF:

METAR-TAF

Havaalanları :

Providenciales, Turks ve Caicos Adaları

Enlem: 21-46-25N, Boylam: 072-15-57W, yükseklik: 5 m

Güncel hava durumu gözlemi

Rapor saat 00:00 UTC de 7 saat ve 20 dakika önce yapıldı.
Rüzgar doğudan 6 kt
Sıcaklık 28°C
Nem 70%
Basınç 1015 hPa
Görüş mesafesi 10 km veya daha fazla
1200 ft yükseklikte parçalı bulutlu

METAR: MBPV 160000Z 09006KT 9999 SCT012 28/22 Q1015

Saat: 03:20 (07:20 UTC)

Tahmin

Rapor saat 05:00 UTC de 2 saat ve 20 dakika önce yapıldı.
Ayın 16'si saat 06 UTC'den ayın 17'si saat 06 UTC'ye kadar geçerli Tahmin
Rüzgar doğudan 15 kt
Görüş mesafesi 10 km veya daha fazla
2000 ft yükseklikte parçalı bulutlu

TAF: MBPV 160500Z 1606/1706 09015KT 9999 SCT020

4.000'den fazla havaalanı için hava durumu gözlemleri ve tahminleri (METAR ve TAF raporları).

Kullanılabilir istasyonlar harita üzerinde sarı ve kırmızı noktalarla gösterilir.

İstasyonun adını görmek için fareyi noktanın üzerinde gezdirin.

Sonrasında hava gözlem ve tahminlerini görmek için tıklayın.

Haritayı değiştirmek için: yaklaştırmak için siyah artı işaretli yeşil düğmeye ve uzaklaştırmak için de eksi işaretli düğmeye hızla tıklayın; bitişik haritalar için yeşil okları kullanın.


METAR-TAF: